Time;durP1;ratioP1;P1;durP2;ratioP2;P2;SDS_P1;SDS_P2;PMS_P1;PMS_P2;Temp;Humidity;BMP_temperature;BMP_pressure;BME280_temperature;BME280_humidity;BME280_pressure;Samples;Min_cycle;Max_cycle;Signal;HPM_P1;HPM_P2
2023/07/23 00:00:47;;;;;;;10.73;6.47;;;;;;;15.23;100.00;100630.53;5033164;28;20029;-54
2023/07/23 00:03:14;;;;;;;10.02;6.55;;;;;;;15.52;100.00;100685.53;5033096;28;20065;-52
2023/07/23 00:05:40;;;;;;;9.23;7.13;;;;;;;15.46;100.00;100676.09;5032291;28;20041;-55
2023/07/23 00:08:05;;;;;;;7.78;6.53;;;;;;;15.48;100.00;100668.06;5032550;28;20048;-55
2023/07/23 00:10:30;;;;;;;10.98;6.38;;;;;;;15.52;100.00;100686.41;5031460;28;20037;-56
2023/07/23 00:12:56;;;;;;;10.02;6.93;;;;;;;15.51;100.00;100678.50;5032487;28;20038;-57
2023/07/23 00:15:21;;;;;;;9.95;6.47;;;;;;;15.12;100.00;100613.41;5032833;28;20109;-50
2023/07/23 00:17:47;;;;;;;8.02;6.22;;;;;;;15.17;100.00;100622.00;5031718;28;20465;-54
2023/07/23 00:20:13;;;;;;;8.07;6.30;;;;;;;15.13;100.00;100619.56;5032816;28;20076;-53
2023/07/23 00:22:39;;;;;;;8.40;6.68;;;;;;;15.08;100.00;100598.63;5044229;28;20476;-56
2023/07/23 00:25:05;;;;;;;7.68;6.13;;;;;;;15.47;100.00;100677.81;5052479;28;20128;-57
2023/07/23 00:27:31;;;;;;;8.23;5.72;;;;;;;15.05;100.00;100593.50;5051209;28;20419;-55
2023/07/23 00:29:56;;;;;;;7.72;6.32;;;;;;;15.11;100.00;100603.75;5052213;28;20052;-52
2023/07/23 00:32:23;;;;;;;9.70;6.70;;;;;;;15.14;100.00;100598.28;5052513;28;20045;-53
2023/07/23 00:34:48;;;;;;;8.68;6.63;;;;;;;15.09;100.00;100580.94;5052401;28;20087;-54
2023/07/23 00:37:13;;;;;;;8.82;6.45;;;;;;;15.54;100.00;100652.66;5051072;28;20037;-51
2023/07/23 00:39:39;;;;;;;9.35;6.30;;;;;;;15.57;100.00;100651.63;5034182;28;20033;-56
2023/07/23 00:42:04;;;;;;;7.78;6.97;;;;;;;15.23;100.00;100585.47;5052052;28;20040;-52
2023/07/23 00:44:30;;;;;;;9.75;7.05;;;;;;;15.21;100.00;100580.22;5052676;28;20064;-55
2023/07/23 00:46:56;;;;;;;9.20;6.60;;;;;;;15.26;100.00;100594.13;5051195;28;20530;-53
2023/07/23 00:49:22;;;;;;;7.88;7.07;;;;;;;15.14;100.00;100563.84;5034122;28;20036;-58
2023/07/23 00:51:47;;;;;;;10.80;7.38;;;;;;;15.42;100.00;100620.63;5052142;28;20090;-56
2023/07/23 00:54:13;;;;;;;7.95;6.60;;;;;;;15.18;100.00;100575.97;5046646;28;20460;-53
2023/07/23 00:56:40;;;;;;;11.68;7.65;;;;;;;15.16;100.00;100567.25;5031105;28;20025;-56
2023/07/23 00:59:07;;;;;;;11.18;7.60;;;;;;;15.26;100.00;100583.50;5030443;28;20037;-55
2023/07/23 01:01:32;;;;;;;11.18;7.85;;;;;;;15.51;100.00;100630.75;5031057;28;20116;-53
2023/07/23 01:03:57;;;;;;;9.02;7.60;;;;;;;15.49;100.00;100619.38;5031159;28;20168;-51
2023/07/23 01:06:24;;;;;;;13.05;8.35;;;;;;;15.10;100.00;100545.50;5030651;28;20449;-56
2023/07/23 01:08:53;;;;;;;12.20;8.52;;;;;;;15.35;100.00;100590.09;5029980;28;20084;-53
2023/07/23 01:11:19;;;;;;;10.77;8.88;;;;;;;15.38;100.00;100593.41;5014451;28;20542;-53
2023/07/23 01:13:44;;;;;;;11.50;8.95;;;;;;;15.51;100.00;100598.91;5031094;28;20061;-53
2023/07/23 01:16:10;;;;;;;13.68;8.68;;;;;;;15.13;100.00;100540.91;5030940;28;20120;-55
2023/07/23 01:18:39;;;;;;;14.35;9.70;;;;;;;15.07;100.00;100533.28;5034979;28;20109;-55
2023/07/23 01:21:05;;;;;;;13.85;9.88;;;;;;;14.82;100.00;100476.44;5018171;28;20030;-52
2023/07/23 01:23:31;;;;;;;11.98;8.90;;;;;;;15.36;100.00;100568.78;5034683;28;20029;-51
2023/07/23 01:25:56;;;;;;;13.63;9.30;;;;;;;15.49;100.00;100591.06;5046925;28;20048;-53
2023/07/23 01:28:22;;;;;;;12.52;9.48;;;;;;;15.37;100.00;100561.69;5035963;28;20037;-49
2023/07/23 01:30:47;;;;;;;12.60;9.57;;;;;;;15.12;100.00;100522.41;5034409;28;20134;-52
2023/07/23 01:33:13;;;;;;;14.93;9.27;;;;;;;15.34;100.00;100553.91;5035737;28;20121;-52
2023/07/23 01:35:38;;;;;;;12.65;9.35;;;;;;;15.38;100.00;100555.44;5034391;28;20036;-54
2023/07/23 01:38:04;;;;;;;11.65;9.10;;;;;;;15.00;100.00;100491.31;5035576;28;20083;-55
2023/07/23 01:40:29;;;;;;;11.80;8.70;;;;;;;15.42;100.00;100557.81;5034595;28;20041;-52
2023/07/23 01:42:55;;;;;;;13.07;9.00;;;;;;;15.04;100.00;100487.53;5036739;28;20072;-55
2023/07/23 01:45:21;;;;;;;13.55;9.77;;;;;;;15.47;100.00;100560.25;5055885;28;20124;-55
2023/07/23 01:47:46;;;;;;;12.70;9.05;;;;;;;15.48;100.00;100570.78;5055550;28;20044;-53
2023/07/23 01:50:12;;;;;;;15.25;9.95;;;;;;;15.07;100.00;100479.41;5055437;28;20052;-53
2023/07/23 01:52:37;;;;;;;15.50;9.63;;;;;;;15.47;100.00;100555.78;5055240;28;20116;-57
2023/07/23 01:55:02;;;;;;;13.15;9.40;;;;;;;15.36;100.00;100541.41;5037376;28;20041;-52
2023/07/23 01:57:28;;;;;;;12.98;9.10;;;;;;;15.37;100.00;100532.50;5055074;28;20041;-59
2023/07/23 01:59:53;;;;;;;12.32;9.70;;;;;;;15.45;100.00;100541.72;5053979;28;20041;-51
2023/07/23 02:02:18;;;;;;;14.27;9.45;;;;;;;15.38;100.00;100532.41;5037497;28;20048;-52
2023/07/23 02:04:44;;;;;;;10.30;8.35;;;;;;;15.36;100.00;100522.84;5037202;28;20040;-52
2023/07/23 02:07:09;;;;;;;13.27;9.30;;;;;;;15.45;100.00;100533.78;5055093;28;20040;-55
2023/07/23 02:09:34;;;;;;;14.02;9.57;;;;;;;15.06;100.00;100473.25;5036950;28;20037;-53
2023/07/23 02:12:00;;;;;;;15.55;9.95;;;;;;;15.07;100.00;100471.47;5055098;28;20392;-56
2023/07/23 02:14:25;;;;;;;14.27;9.63;;;;;;;15.06;100.00;100465.28;5053882;28;20127;-52
2023/07/23 02:16:50;;;;;;;11.82;8.77;;;;;;;15.39;100.00;100526.16;5053503;28;20073;-55
2023/07/23 02:19:16;;;;;;;11.32;8.82;;;;;;;15.33;100.00;100505.31;5053291;28;20041;-52
2023/07/23 02:21:41;;;;;;;13.10;8.68;;;;;;;15.26;100.00;100484.53;5053612;28;20049;-56
2023/07/23 02:24:06;;;;;;;13.30;9.10;;;;;;;15.13;100.00;100452.56;5054663;28;20033;-54
2023/07/23 02:26:32;;;;;;;11.65;8.63;;;;;;;15.05;100.00;100433.59;5054929;28;20476;-52
2023/07/23 02:28:57;;;;;;;13.48;9.00;;;;;;;15.45;100.00;100498.44;5054027;28;20033;-57
2023/07/23 02:31:23;;;;;;;12.32;8.90;;;;;;;15.07;100.00;100426.41;5054580;28;20057;-56
2023/07/23 02:33:48;;;;;;;12.77;9.35;;;;;;;15.39;100.00;100486.38;5052294;28;20056;-55
2023/07/23 02:36:14;;;;;;;13.73;9.23;;;;;;;15.09;100.00;100430.66;5034428;28;20030;-55
2023/07/23 02:38:39;;;;;;;10.80;8.88;;;;;;;15.01;100.00;100417.00;5034699;28;20029;-56
2023/07/23 02:41:04;;;;;;;10.95;9.07;;;;;;;14.96;100.00;100402.31;5034758;28;20030;-52
2023/07/23 02:43:30;;;;;;;12.23;9.80;;;;;;;15.41;100.00;100470.41;5034759;28;20060;-55
2023/07/23 02:45:55;;;;;;;15.00;9.55;;;;;;;15.02;100.00;100402.81;5034193;28;20492;-57
2023/07/23 02:48:20;;;;;;;12.82;10.18;;;;;;;15.05;100.00;100407.94;5034172;28;20057;-55
2023/07/23 02:50:46;;;;;;;16.38;9.63;;;;;;;15.37;100.00;100461.75;5035027;28;20040;-55
2023/07/23 02:53:11;;;;;;;11.73;9.13;;;;;;;15.38;100.00;100465.28;5036560;28;20045;-58
2023/07/23 02:55:36;;;;;;;11.80;9.73;;;;;;;15.22;100.00;100420.22;5054258;28;20037;-56
2023/07/23 02:58:03;;;;;;;12.55;9.27;;;;;;;15.42;100.00;100448.22;5054196;28;20041;-56
2023/07/23 03:00:30;;;;;;;10.90;9.73;;;;;;;15.27;100.00;100410.19;5054084;28;20116;-58
2023/07/23 03:02:56;;;;;;;12.15;8.77;;;;;;;15.16;100.00;100394.06;5052615;28;20472;-55
2023/07/23 03:05:24;;;;;;;13.27;9.93;;;;;;;15.37;100.00;100421.13;5052503;28;20039;-52
2023/07/23 03:07:49;;;;;;;10.68;9.57;;;;;;;15.42;100.00;100429.66;5042092;28;20029;-54
2023/07/23 03:10:15;;;;;;;13.60;9.80;;;;;;;15.45;100.00;100433.00;5034089;28;20029;-54
2023/07/23 03:12:40;;;;;;;11.82;9.35;;;;;;;15.45;100.00;100426.81;5033711;28;20111;-55
2023/07/23 03:15:06;;;;;;;10.63;9.40;;;;;;;15.10;100.00;100359.94;5033652;28;20042;-53
2023/07/23 03:17:31;;;;;;;13.45;8.57;;;;;;;15.11;100.00;100351.06;5032724;28;20150;-54
2023/07/23 03:19:57;;;;;;;12.40;8.95;;;;;;;15.47;100.00;100420.50;5016004;28;20132;-51
2023/07/23 03:22:23;;;;;;;11.75;9.25;;;;;;;15.41;100.00;100406.75;5033587;28;20061;-55
2023/07/23 03:24:48;;;;;;;11.52;9.13;;;;;;;15.45;100.00;100413.56;5033008;28;20053;-54
2023/07/23 03:27:13;;;;;;;13.27;9.40;;;;;;;15.07;100.00;100339.78;5033532;28;20128;-54
2023/07/23 03:29:39;;;;;;;11.70;8.73;;;;;;;15.06;100.00;100343.38;5033618;28;20128;-51
2023/07/23 03:32:05;;;;;;;12.48;9.80;;;;;;;15.09;100.00;100340.53;5032319;28;20469;-58
2023/07/23 03:34:31;;;;;;;12.32;9.23;;;;;;;15.46;100.00;100400.22;5033544;28;20038;-53
2023/07/23 03:36:56;;;;;;;16.13;9.52;;;;;;;15.00;100.00;100316.38;5033335;28;20036;-55
2023/07/23 03:39:21;;;;;;;9.77;8.60;;;;;;;15.45;100.00;100393.19;5032544;28;20083;-56
2023/07/23 03:41:47;;;;;;;10.05;8.27;;;;;;;15.47;100.00;100401.13;5032938;28;20389;-55
2023/07/23 03:44:12;;;;;;;9.10;8.07;;;;;;;15.13;100.00;100328.81;5032226;28;20025;-55
2023/07/23 03:46:45;;;;;;;9.77;8.77;;;;;;;15.15;100.00;100326.91;5033228;28;20034;-52
2023/07/23 03:49:11;;;;;;;15.95;8.98;;;;;;;15.46;100.00;100384.31;5033098;28;20026;-52
2023/07/23 03:51:36;;;;;;;12.80;8.55;;;;;;;15.08;100.00;100319.44;5032916;28;20063;-52
2023/07/23 03:54:01;;;;;;;9.77;8.45;;;;;;;15.49;100.00;100385.97;5015628;28;20370;-54
2023/07/23 03:56:27;;;;;;;10.75;8.18;;;;;;;15.09;100.00;100313.19;5032932;28;20033;-58
2023/07/23 03:58:52;;;;;;;8.43;7.63;;;;;;;15.43;100.00;100371.22;5033148;28;20041;-58
2023/07/23 04:01:17;;;;;;;12.93;8.35;;;;;;;15.45;100.00;100368.47;5034959;28;20041;-53
2023/07/23 04:03:43;;;;;;;10.98;8.23;;;;;;;15.07;100.00;100307.97;5033002;28;20033;-55
2023/07/23 04:06:08;;;;;;;12.32;8.63;;;;;;;15.48;100.00;100373.63;5015144;28;20040;-56
2023/07/23 04:08:33;;;;;;;11.20;7.22;;;;;;;15.43;100.00;100363.28;5032969;28;20469;-54
2023/07/23 04:10:59;;;;;;;8.63;7.50;;;;;;;15.55;100.00;100367.03;5032953;28;20037;-56
2023/07/23 04:13:24;;;;;;;8.75;7.47;;;;;;;15.57;100.00;100358.03;5032734;28;20083;-51
2023/07/23 04:15:49;;;;;;;12.70;7.22;;;;;;;15.18;100.00;100288.75;5032587;28;20083;-56
2023/07/23 04:18:15;;;;;;;12.57;7.75;;;;;;;15.62;100.00;100363.91;5031371;28;20047;-51
2023/07/23 04:20:41;;;;;;;10.77;6.95;;;;;;;15.69;100.00;100356.44;5032715;28;20414;-53
2023/07/23 04:23:06;;;;;;;11.88;6.85;;;;;;;15.72;100.00;100357.09;5031351;28;20064;-52
2023/07/23 04:25:31;;;;;;;12.88;7.15;;;;;;;15.75;100.00;100350.75;5032507;28;20079;-51
2023/07/23 04:27:57;;;;;;;8.35;7.03;;;;;;;15.85;100.00;100359.00;5031547;28;20442;-53
2023/07/23 04:30:25;;;;;;;9.90;7.45;;;;;;;15.52;100.00;100295.59;5032484;28;20089;-56
2023/07/23 04:32:50;;;;;;;9.93;7.82;;;;;;;15.58;100.00;100297.88;5032227;28;20500;-52
2023/07/23 04:35:16;;;;;;;10.93;7.68;;;;;;;15.95;100.00;100357.47;5052206;28;20104;-51
2023/07/23 04:37:42;;;;;;;10.40;7.70;;;;;;;15.98;100.00;100357.28;5034002;28;20036;-58
2023/07/23 04:40:08;;;;;;;10.63;7.07;;;;;;;15.99;100.00;100362.50;5052308;28;20037;-55
2023/07/23 04:42:33;;;;;;;11.60;8.77;;;;;;;16.02;100.00;100354.34;5034372;28;20119;-54
2023/07/23 04:44:58;;;;;;;18.15;8.50;;;;;;;16.02;100.00;100351.69;5051998;28;20110;-51
2023/07/23 04:47:24;;;;;;;12.00;8.38;;;;;;;15.90;100.00;100327.72;5052167;28;20139;-49
2023/07/23 04:49:49;;;;;;;14.32;8.35;;;;;;;15.60;100.00;100274.75;5050860;28;20109;-57
2023/07/23 04:52:14;;;;;;;15.63;9.05;;;;;;;15.68;100.00;100302.50;5037754;28;20060;-50
2023/07/23 04:54:40;;;;;;;13.00;8.93;;;;;;;16.00;100.00;100345.63;5032040;28;20041;-56
2023/07/23 04:57:05;;;;;;;14.07;9.70;;;;;;;16.06;100.00;100347.88;5032163;28;20061;-55
2023/07/23 04:59:30;;;;;;;12.43;8.55;;;;;;;16.05;100.00;100345.34;5030798;28;20041;-57
2023/07/23 05:01:56;;;;;;;11.75;8.32;;;;;;;15.73;100.00;100286.31;5032283;28;20039;-52
2023/07/23 05:04:21;;;;;;;11.27;9.05;;;;;;;16.12;100.00;100355.47;5032082;28;20059;-52
2023/07/23 05:06:47;;;;;;;13.82;9.50;;;;;;;15.75;100.00;100289.72;5032002;28;20113;-55
2023/07/23 05:09:12;;;;;;;11.55;8.73;;;;;;;16.16;100.00;100359.66;5031973;28;20048;-54
2023/07/23 05:11:37;;;;;;;18.13;8.93;;;;;;;15.81;100.00;100294.63;5032012;28;20037;-51
2023/07/23 05:14:03;;;;;;;11.82;7.90;;;;;;;16.15;100.00;100365.03;5031983;28;20029;-53
2023/07/23 05:16:29;;;;;;;12.75;8.15;;;;;;;15.75;100.00;100295.03;5030520;28;20389;-55
2023/07/23 05:18:55;;;;;;;13.30;8.18;;;;;;;16.07;100.00;100359.38;5031966;28;20034;-54
2023/07/23 05:21:20;;;;;;;11.90;8.27;;;;;;;15.67;100.00;100300.78;5031860;28;20362;-56
2023/07/23 05:23:45;;;;;;;13.95;8.13;;;;;;;15.76;100.00;100316.13;5031054;28;20028;-59
2023/07/23 05:26:11;;;;;;;12.43;8.65;;;;;;;15.82;100.00;100348.56;5031383;28;20044;-53
2023/07/23 05:28:36;;;;;;;12.15;8.25;;;;;;;15.48;100.00;100300.22;5014381;28;20136;-55
2023/07/23 05:31:01;;;;;;;11.77;7.47;;;;;;;15.45;100.00;100294.22;5030365;28;20509;-55
2023/07/23 05:33:27;;;;;;;10.57;7.45;;;;;;;15.73;100.00;100356.13;5014137;28;20092;-51
2023/07/23 05:35:52;;;;;;;11.88;8.02;;;;;;;15.51;100.00;100301.81;5030535;28;20029;-53
2023/07/23 05:38:18;;;;;;;12.88;8.60;;;;;;;15.77;100.00;100364.75;5031723;28;20300;-55
2023/07/23 05:40:43;;;;;;;12.15;8.10;;;;;;;15.33;100.00;100298.47;5031648;28;20034;-55
2023/07/23 05:43:16;;;;;;;12.77;9.77;;;;;;;15.59;100.00;100340.19;5046876;28;20481;-56
2023/07/23 05:45:41;;;;;;;10.90;9.10;;;;;;;15.30;100.00;100303.94;5034250;28;20046;-54
2023/07/23 05:48:07;;;;;;;13.50;9.00;;;;;;;15.27;100.00;100290.00;5051400;28;20033;-57
2023/07/23 05:50:32;;;;;;;12.05;9.07;;;;;;;15.50;100.00;100346.06;5051435;28;20041;-53
2023/07/23 05:52:57;;;;;;;12.13;9.18;;;;;;;15.20;100.00;100286.91;5050699;28;20033;-54
2023/07/23 05:55:23;;;;;;;14.52;9.23;;;;;;;15.57;100.00;100354.50;5051403;28;20068;-55
2023/07/23 05:57:48;;;;;;;13.27;8.57;;;;;;;15.60;100.00;100354.31;5038536;28;20394;-58
2023/07/23 06:00:13;;;;;;;14.68;8.93;;;;;;;15.63;100.00;100348.84;5031384;28;20038;-52
2023/07/23 06:02:39;;;;;;;13.60;9.52;;;;;;;15.60;100.00;100349.88;5031491;28;20025;-53
2023/07/23 06:05:04;;;;;;;11.95;8.43;;;;;;;15.60;100.00;100338.41;5034557;28;20037;-55
2023/07/23 06:07:29;;;;;;;9.68;8.48;;;;;;;15.52;100.00;100338.03;5035119;28;20033;-51
2023/07/23 06:09:55;;;;;;;10.98;8.85;;;;;;;15.60;100.00;100341.91;5034140;28;20497;-54
2023/07/23 06:12:20;;;;;;;12.45;8.55;;;;;;;15.66;100.00;100346.00;5035191;28;20472;-54
2023/07/23 06:14:45;;;;;;;11.88;8.65;;;;;;;15.29;100.00;100277.53;5034650;28;20041;-52
2023/07/23 06:17:11;;;;;;;10.05;8.70;;;;;;;15.70;100.00;100356.31;5034872;28;20037;-53
2023/07/23 06:19:36;;;;;;;10.20;9.05;;;;;;;15.29;100.00;100289.00;5034535;28;20033;-54
2023/07/23 06:22:01;;;;;;;11.10;8.13;;;;;;;15.33;100.00;100300.25;5034929;28;20033;-55
2023/07/23 06:24:27;;;;;;;9.75;7.53;;;;;;;15.72;100.00;100349.13;5034761;28;20120;-55
2023/07/23 06:26:52;;;;;;;12.70;8.48;;;;;;;15.46;100.00;100294.13;5034723;28;20041;-55
2023/07/23 06:29:17;;;;;;;13.75;8.30;;;;;;;15.94;100.00;100351.31;5033038;28;20040;-57
2023/07/23 06:31:43;;;;;;;12.43;8.52;;;;;;;15.68;100.00;100289.22;5054480;28;20174;-54
2023/07/23 06:34:09;;;;;;;11.90;7.80;;;;;;;15.65;100.00;100275.28;5019823;28;20064;-56
2023/07/23 06:36:34;;;;;;;10.90;7.90;;;;;;;15.59;100.00;100273.88;5036690;28;20098;-53
2023/07/23 06:39:00;;;;;;;11.60;8.52;;;;;;;15.64;100.00;100277.09;5054468;28;20037;-57
2023/07/23 06:41:27;;;;;;;11.63;8.00;;;;;;;16.03;100.00;100339.25;5054457;28;20044;-54
2023/07/23 06:43:52;;;;;;;10.07;8.68;;;;;;;16.05;100.00;100335.56;5054340;28;20155;-58
2023/07/23 06:46:20;;;;;;;14.55;8.40;;;;;;;16.08;100.00;100340.66;5052071;28;20119;-54
2023/07/23 06:48:46;;;;;;;10.85;8.05;;;;;;;16.10;100.00;100357.38;5034138;28;20064;-55
2023/07/23 06:51:11;;;;;;;13.77;8.63;;;;;;;15.40;100.00;100232.66;5034411;28;20053;-53
2023/07/23 06:53:36;;;;;;;12.40;8.48;;;;;;;16.06;100.00;100329.31;5034373;28;20061;-57
2023/07/23 06:56:03;;;;;;;11.90;8.88;;;;;;;16.19;100.00;100348.84;5034256;28;20397;-54
2023/07/23 06:58:29;;;;;;;10.40;8.30;;;;;;;16.20;100.00;100325.78;5034160;28;20449;-53
2023/07/23 07:00:54;;;;;;;11.88;8.25;;;;;;;16.00;100.00;100279.25;5032738;28;20026;-56
2023/07/23 07:03:20;;;;;;;11.90;8.60;;;;;;;15.97;100.00;100273.28;5033899;28;20397;-56
2023/07/23 07:05:46;;;;;;;10.35;7.35;;;;;;;16.14;100.00;100284.53;5033464;28;20030;-56
2023/07/23 07:08:11;;;;;;;9.60;6.80;;;;;;;16.54;100.00;100338.66;5042091;28;20029;-53
2023/07/23 07:10:37;;;;;;;9.88;7.30;;;;;;;16.53;100.00;100330.72;5038819;28;20449;-54
2023/07/23 07:13:02;;;;;;;13.38;8.65;;;;;;;16.59;100.00;100338.34;5052544;28;20025;-55
2023/07/23 07:15:28;;;;;;;9.13;6.80;;;;;;;16.26;100.00;100277.56;5045017;28;20104;-53
2023/07/23 07:17:53;;;;;;;9.57;7.18;;;;;;;16.63;100.00;100329.22;5032353;28;20076;-56
2023/07/23 07:20:18;;;;;;;11.45;7.40;;;;;;;16.48;100.00;100290.34;5039331;28;20045;-56
2023/07/23 07:22:44;;;;;;;11.80;7.95;;;;;;;16.85;100.00;100338.34;5033222;28;20099;-52
2023/07/23 07:25:09;;;;;;;10.60;7.57;;;;;;;16.87;100.00;100347.06;5018778;28;20047;-54
2023/07/23 07:27:34;;;;;;;8.88;6.85;;;;;;;16.77;100.00;100314.09;5045605;28;20029;-54
2023/07/23 07:30:00;;;;;;;7.50;6.30;;;;;;;16.61;100.00;100267.34;5028688;28;20396;-54
2023/07/23 07:32:25;;;;;;;7.10;6.38;;;;;;;17.09;100.00;100335.00;5033175;28;20503;-57
2023/07/23 07:34:50;;;;;;;7.53;6.72;;;;;;;16.73;100.00;100269.19;5044242;28;20032;-56
2023/07/23 07:37:16;;;;;;;7.32;6.60;;;;;;;17.21;100.00;100320.88;5047436;28;20056;-56
2023/07/23 07:39:41;;;;;;;8.93;6.40;;;;;;;16.86;100.00;100257.66;5041363;28;20044;-57
2023/07/23 07:42:06;;;;;;;8.23;6.43;;;;;;;17.28;100.00;100325.66;5033670;28;20048;-55
2023/07/23 07:44:32;;;;;;;8.15;6.38;;;;;;;17.32;100.00;100327.19;5034278;28;20037;-52
2023/07/23 07:46:58;;;;;;;7.95;6.78;;;;;;;17.33;100.00;100334.22;5032796;28;20041;-47
2023/07/23 07:49:23;;;;;;;7.35;6.07;;;;;;;17.06;100.00;100277.56;5036671;28;20045;-48
2023/07/23 07:51:49;;;;;;;9.07;6.13;;;;;;;17.36;100.00;100325.16;5032482;28;20044;-52
2023/07/23 07:54:14;;;;;;;8.60;6.13;;;;;;;17.41;100.00;100333.69;5031578;28;20408;-46
2023/07/23 07:56:40;;;;;;;8.43;6.47;;;;;;;17.00;100.00;100264.69;5031913;28;20397;-51
2023/07/23 07:59:06;;;;;;;7.65;5.53;;;;;;;17.34;100.00;100341.22;5043416;28;20036;-49
2023/07/23 08:01:31;;;;;;;8.05;6.32;;;;;;;17.00;100.00;100285.94;5034773;28;20071;-47
2023/07/23 08:03:57;;;;;;;8.48;6.10;;;;;;;17.36;100.00;100341.13;5042895;28;20408;-47
2023/07/23 08:06:24;;;;;;;6.72;5.72;;;;;;;17.01;100.00;100252.25;5036344;28;20045;-46
2023/07/23 08:08:50;;;;;;;7.70;6.10;;;;;;;17.05;100.00;100267.88;5033687;28;20091;-45
2023/07/23 08:11:16;;;;;;;6.45;5.85;;;;;;;17.50;100.00;100338.38;5014862;28;20193;-47
2023/07/23 08:13:42;;;;;;;6.13;5.50;;;;;;;17.33;100.00;100293.44;5031298;28;20141;-48
2023/07/23 08:16:07;;;;;;;6.22;5.18;;;;;;;17.49;100.00;100338.47;5034793;28;20025;-48
2023/07/23 08:18:33;;;;;;;5.35;4.85;;;;;;;17.46;100.00;100334.19;5032491;28;20076;-49
2023/07/23 08:20:58;;;;;;;7.07;5.50;;;;;;;17.48;100.00;100334.97;5034232;28;20033;-46
2023/07/23 08:23:25;;;;;;;6.47;5.35;;;;;;;17.11;100.00;100271.91;5052490;28;20116;-48
2023/07/23 08:25:55;;;;;;;7.00;6.30;;;;;;;17.50;100.00;100338.38;5039999;28;20128;-49
2023/07/23 08:28:22;;;;;;;6.75;5.80;;;;;;;17.20;100.00;100280.13;5049824;28;20033;-48
2023/07/23 08:30:48;;;;;;;7.25;5.45;;;;;;;17.50;100.00;100332.19;5051994;28;20056;-46
2023/07/23 08:33:17;;;;;;;7.78;5.78;;;;;;;17.54;100.00;100339.03;5052435;28;20108;-46
2023/07/23 08:35:42;;;;;;;6.53;5.63;;;;;;;17.23;100.00;100284.38;5036002;28;20045;-49
2023/07/23 08:38:08;;;;;;;6.45;5.70;;;;;;;17.54;100.00;100344.34;5033996;28;20399;-48
2023/07/23 08:40:41;;;;;;;6.97;6.18;;;;;;;17.24;100.00;100292.28;5052020;28;20048;-46
2023/07/23 08:43:53;;;;;;;8.63;5.85;;;;;;;17.57;100.00;100337.00;5033094;28;20064;-48
2023/07/23 08:46:18;;;;;;;6.85;5.85;;;;;;;17.61;100.00;100335.84;5043541;28;20554;-49
2023/07/23 08:48:59;;;;;;;6.53;5.38;;;;;;;17.68;100.00;100350.44;5051261;28;20036;-48
2023/07/23 08:51:32;;;;;;;7.72;5.97;;;;;;;17.66;100.00;100333.72;5032003;28;20040;-47
2023/07/23 08:53:57;;;;;;;6.38;5.72;;;;;;;17.75;100.00;100333.06;5031670;28;20508;-48
2023/07/23 08:56:23;;;;;;;5.97;5.38;;;;;;;17.77;100.00;100341.81;5031039;28;20025;-48
2023/07/23 08:58:49;;;;;;;6.07;5.40;;;;;;;17.80;100.00;100340.75;5015969;28;20029;-47
2023/07/23 09:01:16;;;;;;;7.05;5.60;;;;;;;17.78;100.00;100342.66;5052002;28;20055;-49
2023/07/23 09:03:42;;;;;;;8.80;6.60;;;;;;;17.31;100.00;100253.63;5017407;28;20048;-46
2023/07/23 09:06:08;;;;;;;6.60;6.00;;;;;;;17.68;100.00;100329.16;5051852;28;20037;-46
2023/07/23 09:08:34;;;;;;;7.03;6.20;;;;;;;17.76;100.00;100334.78;5051796;28;20037;-49
2023/07/23 09:11:01;;;;;;;7.75;6.03;;;;;;;17.76;100.00;100344.56;5051717;28;20377;-46
2023/07/23 09:13:36;;;;;;;6.47;5.75;;;;;;;17.37;100.00;100277.16;5051648;28;20037;-47
2023/07/23 09:16:04;;;;;;;5.90;5.38;;;;;;;17.73;100.00;100337.66;5029565;28;20045;-47
2023/07/23 09:18:30;;;;;;;7.03;5.72;;;;;;;17.29;100.00;100268.88;5030611;28;20034;-47
2023/07/23 09:20:57;;;;;;;9.93;4.85;;;;;;;17.72;100.00;100322.63;5030779;28;20044;-49
2023/07/23 09:23:25;;;;;;;6.00;5.28;;;;;;;17.38;100.00;100283.34;5030621;28;20426;-45
2023/07/23 09:25:50;;;;;;;6.30;5.43;;;;;;;17.33;100.00;100280.16;5031690;28;20048;-45
2023/07/23 09:28:23;;;;;;;5.90;4.78;;;;;;;17.21;100.00;100287.16;5031457;28;20116;-49
2023/07/23 09:30:55;;;;;;;5.38;4.85;;;;;;;17.46;100.00;100363.47;5031701;28;20081;-46
2023/07/23 09:33:20;;;;;;;5.75;5.20;;;;;;;16.94;100.00;100274.88;5030812;28;20029;-47
2023/07/23 09:35:46;;;;;;;6.13;5.25;;;;;;;17.14;100.00;100331.06;5031628;28;20033;-49
2023/07/23 09:38:13;;;;;;;6.07;5.30;;;;;;;16.97;100.00;100309.22;5031585;28;20403;-48
2023/07/23 09:40:40;;;;;;;6.30;5.65;;;;;;;17.17;100.00;100351.28;5035388;28;20049;-46
2023/07/23 09:43:06;;;;;;;6.88;6.15;;;;;;;17.11;100.00;100344.56;5034714;28;20035;-46
2023/07/23 09:45:36;;;;;;;7.80;6.50;;;;;;;17.02;100.00;100305.31;5035383;28;20033;-47
2023/07/23 09:48:02;;;;;;;7.15;6.45;;;;;;;17.00;100.00;100299.25;5017422;28;20083;-47
2023/07/23 09:50:28;;;;;;;6.95;6.25;;;;;;;17.44;100.00;100354.75;5034678;28;20050;-48
2023/07/23 09:52:53;;;;;;;6.82;5.93;;;;;;;17.10;100.00;100284.38;5034837;28;20102;-46
2023/07/23 09:55:22;;;;;;;10.30;7.18;;;;;;;17.16;100.00;100288.44;5035059;28;20447;-46
2023/07/23 09:57:52;;;;;;;8.30;7.47;;;;;;;17.29;100.00;100295.47;5033963;28;20047;-46
2023/07/23 10:00:18;;;;;;;8.30;6.88;;;;;;;17.56;100.00;100313.19;5034574;28;20040;-48
2023/07/23 10:02:46;;;;;;;7.40;6.47;;;;;;;17.72;100.00;100335.94;5034946;28;20102;-47
2023/07/23 10:05:12;;;;;;;8.63;6.32;;;;;;;17.78;100.00;100342.66;5034049;28;20029;-51
2023/07/23 10:07:39;;;;;;;6.63;6.03;;;;;;;17.65;100.00;100297.44;5035129;28;20033;-49
2023/07/23 10:10:05;;;;;;;7.85;6.18;;;;;;;18.05;100.00;100322.06;5035204;28;20163;-50
2023/07/23 10:12:31;;;;;;;7.03;6.30;;;;;;;18.27;100.00;100340.06;5033747;28;20599;-49
2023/07/23 10:14:56;;;;;;;6.25;5.65;;;;;;;18.24;100.00;100338.44;5035286;28;20124;-47
2023/07/23 10:17:21;;;;;;;6.38;5.25;;;;;;;18.10;100.00;100282.63;5033498;28;20116;-47
2023/07/23 10:19:47;;;;;;;5.50;5.00;;;;;;;18.53;100.00;100361.19;5033793;28;20092;-49
2023/07/23 10:22:12;;;;;;;6.03;5.30;;;;;;;18.54;100.00;100346.06;5034297;28;20029;-47
2023/07/23 10:24:39;;;;;;;7.63;6.03;;;;;;;18.59;100.00;100369.72;5016311;28;20499;-48
2023/07/23 10:27:12;;;;;;;6.60;5.47;;;;;;;18.39;100.00;100334.66;5034748;28;20040;-47
2023/07/23 10:29:37;;;;;;;7.47;5.60;;;;;;;18.49;100.00;100370.41;5033064;28;20033;-48
2023/07/23 10:32:26;;;;;;;5.65;5.15;;;;;;;18.58;100.00;100358.22;5034158;28;20107;-46
2023/07/23 10:34:52;;;;;;;5.88;5.32;;;;;;;18.60;100.00;100366.94;5041110;28;20036;-48
2023/07/23 10:37:18;;;;;;;7.65;5.20;;;;;;;18.61;100.00;100357.13;5034169;28;20083;-47
2023/07/23 10:39:52;;;;;;;6.40;5.43;;;;;;;18.58;100.00;100344.03;5040690;28;20068;-46
2023/07/23 10:42:29;;;;;;;5.65;5.05;;;;;;;18.84;100.00;100361.63;5032463;28;20481;-49
2023/07/23 10:45:15;;;;;;;7.15;5.50;;;;;;;19.13;100.00;100368.31;5034008;28;20043;-47
2023/07/23 10:47:47;;;;;;;5.22;4.72;;;;;;;19.54;100.00;100319.81;5032963;28;20026;-46
2023/07/23 10:50:14;;;;;;;5.57;5.00;;;;;;;20.00;100.00;100307.22;5040704;28;20034;-47
2023/07/23 10:52:42;;;;;;;5.75;5.15;;;;;;;20.52;100.00;100352.00;5041548;28;20032;-46
2023/07/23 10:55:08;;;;;;;6.05;4.80;;;;;;;20.77;100.00;100359.75;5051052;28;20518;-47
2023/07/23 10:57:38;;;;;;;6.07;4.57;;;;;;;20.75;100.00;100364.34;5039795;28;20033;-46
2023/07/23 11:00:05;;;;;;;5.32;4.53;;;;;;;20.48;100.00;100294.44;5036124;28;20029;-47
2023/07/23 11:02:30;;;;;;;8.90;4.97;;;;;;;20.89;100.00;100373.09;5053774;28;20518;-50
2023/07/23 11:04:57;;;;;;;5.68;5.05;;;;;;;20.99;100.00;100369.53;5042883;28;20021;-48
2023/07/23 11:07:27;;;;;;;6.60;4.05;;;;;;;20.81;100.00;100309.50;5036056;28;20103;-46